Time;durP1;ratioP1;P1;durP2;ratioP2;P2;SDS_P1;SDS_P2;PMS_P1;PMS_P2;Temp;Humidity;BMP_temperature;BMP_pressure;BME280_temperature;BME280_humidity;BME280_pressure;Samples;Min_cycle;Max_cycle;Signal;HPM_P1;HPM_P2
2023/07/23 00:01:21;;;;;;;;;7.25;7.25;;;;;23.00;44.51;99184.38;4970806;28;45420;-59
2023/07/23 00:03:46;;;;;;;;;7.50;7.50;;;;;22.99;44.79;99186.22;4970791;28;47364;-59
2023/07/23 00:06:12;;;;;;;;;8.00;8.00;;;;;22.98;44.84;99189.88;4971979;28;45521;-59
2023/07/23 00:08:37;;;;;;;;;8.25;6.25;;;;;22.95;44.68;99176.75;4971628;28;45868;-59
2023/07/23 00:11:02;;;;;;;;;7.25;7.00;;;;;22.93;44.95;99184.94;4972533;28;45446;-60
2023/07/23 00:13:28;;;;;;;;;7.25;6.25;;;;;22.92;44.71;99185.94;4968814;28;45546;-60
2023/07/23 00:15:53;;;;;;;;;6.00;6.00;;;;;22.90;44.84;99181.69;4972839;28;45470;-59
2023/07/23 00:18:18;;;;;;;;;7.50;6.25;;;;;22.86;44.98;99180.25;4966050;28;45482;-59
2023/07/23 00:20:44;;;;;;;;;7.00;7.00;;;;;22.83;45.07;99170.63;4973043;28;45398;-59
2023/07/23 00:23:09;;;;;;;;;7.75;7.75;;;;;22.80;45.15;99178.94;4966914;28;45833;-59
2023/07/23 00:25:35;;;;;;;;;8.00;8.00;;;;;22.78;45.38;99172.03;4972663;28;45540;-59
2023/07/23 00:28:00;;;;;;;;;8.25;7.00;;;;;22.81;45.53;99174.41;4968971;28;45767;-61
2023/07/23 00:30:25;;;;;;;;;7.75;7.50;;;;;22.79;45.75;99173.75;4972660;28;45553;-60
2023/07/23 00:32:51;;;;;;;;;4.00;4.00;;;;;22.74;46.30;99179.47;4970166;28;46191;-60
2023/07/23 00:35:16;;;;;;;;;8.00;7.25;;;;;22.77;46.09;99175.72;4972460;28;45497;-59
2023/07/23 00:37:42;;;;;;;;;6.50;6.50;;;;;22.82;46.49;99170.75;4967853;28;45450;-60
2023/07/23 00:40:08;;;;;;;;;5.75;5.75;;;;;22.87;46.21;99172.03;4972725;28;45443;-59
2023/07/23 00:42:33;;;;;;;;;9.00;8.50;;;;;22.89;46.24;99169.22;4969198;28;46064;-60
2023/07/23 00:44:59;;;;;;;;;7.00;7.00;;;;;22.91;46.31;99169.94;4972737;28;45428;-60
2023/07/23 00:47:25;;;;;;;;;9.00;7.50;;;;;22.89;46.47;99170.06;4968280;28;45455;-60
2023/07/23 00:49:51;;;;;;;;;10.00;8.25;;;;;22.87;46.34;99176.56;4972549;28;45502;-60
2023/07/23 00:52:17;;;;;;;;;4.25;3.75;;;;;22.84;46.68;99171.47;4968837;28;45597;-59
2023/07/23 00:54:42;;;;;;;;;7.60;7.60;;;;;22.81;46.71;99172.59;4971361;28;45519;-60
2023/07/23 00:57:10;;;;;;;;;7.75;6.50;;;;;22.77;46.83;99176.56;4970379;28;45507;-60
2023/07/23 00:59:37;;;;;;;;;9.25;7.50;;;;;22.69;46.79;99176.34;4964376;28;45568;-60
2023/07/23 01:02:03;;;;;;;;;7.60;6.60;;;;;22.63;47.12;99169.66;4970240;28;46563;-60
2023/07/23 01:04:29;;;;;;;;;6.00;5.50;;;;;22.60;46.55;99174.50;4972339;28;45501;-60
2023/07/23 01:06:57;;;;;;;;;5.80;5.80;;;;;22.60;46.78;99177.19;4970607;28;45407;-60
2023/07/23 01:09:24;;;;;;;;;8.00;5.75;;;;;22.62;47.07;99176.03;4965556;28;45854;-60
2023/07/23 01:11:51;;;;;;;;;10.80;7.40;;;;;22.66;47.35;99167.69;4969707;28;46341;-60
2023/07/23 01:14:16;;;;;;;;;7.20;7.00;;;;;22.60;46.87;99172.66;4970042;28;45474;-60
2023/07/23 01:16:43;;;;;;;;;8.00;8.00;;;;;22.54;47.00;99175.03;4969227;28;45498;-60
2023/07/23 01:19:12;;;;;;;;;10.50;7.25;;;;;22.51;47.01;99173.44;4967427;28;45577;-59
2023/07/23 01:21:37;;;;;;;;;7.60;7.60;;;;;22.51;47.61;99183.34;4970963;28;45762;-61
2023/07/23 01:24:03;;;;;;;;;8.50;8.50;;;;;22.54;46.99;99173.19;4967886;28;45438;-59
2023/07/23 01:26:29;;;;;;;;;8.00;6.25;;;;;22.59;47.33;99172.78;4970430;28;45534;-60
2023/07/23 01:28:54;;;;;;;;;8.25;8.25;;;;;22.59;47.01;99170.94;4967472;28;45455;-60
2023/07/23 01:31:20;;;;;;;;;10.00;7.50;;;;;22.54;46.69;99172.34;4970466;28;45620;-60
2023/07/23 01:33:46;;;;;;;;;11.00;10.00;;;;;22.47;47.22;99163.09;4967158;28;45422;-60
2023/07/23 01:36:12;;;;;;;;;8.00;7.40;;;;;22.48;48.01;99164.81;4971439;28;45399;-60
2023/07/23 01:38:37;;;;;;;;;7.00;6.75;;;;;22.49;48.12;99161.13;4970689;28;45636;-60
2023/07/23 01:41:04;;;;;;;;;7.25;7.00;;;;;22.49;47.93;99161.13;4970705;28;47152;-60
2023/07/23 01:43:30;;;;;;;;;8.60;8.40;;;;;22.47;48.09;99158.56;4966521;28;45478;-60
2023/07/23 01:45:55;;;;;;;;;7.00;7.00;;;;;22.45;47.60;99154.34;4987142;28;45509;-60
2023/07/23 01:48:21;;;;;;;;;9.75;7.00;;;;;22.41;47.82;99148.41;4967412;28;45382;-60
2023/07/23 01:50:47;;;;;;;;;8.40;6.40;;;;;22.36;48.17;99149.78;4971866;28;45541;-60
2023/07/23 01:53:13;;;;;;;;;9.25;7.25;;;;;22.32;48.14;99148.34;4969423;28;45769;-60
2023/07/23 01:55:38;;;;;;;;;8.75;8.75;;;;;22.28;48.14;99139.72;4973695;28;45817;-60
2023/07/23 01:58:03;;;;;;;;;7.25;6.00;;;;;22.29;47.86;99141.41;4968948;28;45511;-59
2023/07/23 02:00:29;;;;;;;;;6.75;6.75;;;;;22.26;48.77;99141.69;4986542;28;48278;-60
2023/07/23 02:02:54;;;;;;;;;6.00;6.00;;;;;22.20;48.48;99137.69;4967379;28;45380;-60
2023/07/23 02:05:21;;;;;;;;;10.00;7.00;;;;;22.10;48.41;99139.50;4968366;28;45538;-60
2023/07/23 02:07:46;;;;;;;;;7.75;6.50;;;;;22.08;48.44;99143.28;4970128;28;45510;-60
2023/07/23 02:10:12;;;;;;;;;10.25;7.50;;;;;22.11;48.13;99141.19;4974467;28;46605;-60
2023/07/23 02:12:37;;;;;;;;;7.75;6.00;;;;;22.13;48.65;99144.56;4971183;28;45508;-59
2023/07/23 02:15:04;;;;;;;;;9.50;7.50;;;;;22.13;48.56;99147.25;4973805;28;45442;-60
2023/07/23 02:17:29;;;;;;;;;7.00;6.40;;;;;22.08;48.75;99144.16;4971486;28;45545;-60
2023/07/23 02:19:54;;;;;;;;;6.50;6.50;;;;;22.04;48.96;99147.22;4973109;28;47105;-60
2023/07/23 02:22:20;;;;;;;;;6.00;6.00;;;;;22.04;48.91;99144.53;4968792;28;45505;-60
2023/07/23 02:24:45;;;;;;;;;7.75;7.00;;;;;22.05;48.63;99147.09;4966427;28;45486;-60
2023/07/23 02:27:11;;;;;;;;;7.75;7.75;;;;;22.07;48.92;99145.13;4972475;28;45429;-60
2023/07/23 02:29:37;;;;;;;;;7.75;6.00;;;;;22.08;48.81;99146.84;4972209;28;45471;-60
2023/07/23 02:32:02;;;;;;;;;2.50;1.00;;;;;22.06;49.07;99145.25;4969705;28;45896;-60
2023/07/23 02:34:28;;;;;;;;;9.25;7.25;;;;;22.02;49.28;99144.66;4970665;28;45505;-59
2023/07/23 02:36:53;;;;;;;;;11.50;7.50;;;;;21.98;48.77;99142.34;4971546;28;45544;-60
2023/07/23 02:39:19;;;;;;;;;7.00;7.00;;;;;21.94;48.95;99139.94;4974037;28;46530;-60
2023/07/23 02:41:44;;;;;;;;;7.50;7.50;;;;;21.88;49.78;99142.31;4972446;28;45499;-60
2023/07/23 02:44:12;;;;;;;;;9.50;9.00;;;;;21.83;49.74;99149.88;4971164;28;45538;-59
2023/07/23 02:46:37;;;;;;;;;7.00;7.00;;;;;21.76;50.04;99146.06;4972958;28;45537;-60
2023/07/23 02:49:02;;;;;;;;;11.50;7.00;;;;;21.71;50.20;99148.25;4970449;28;46348;-59
2023/07/23 02:51:28;;;;;;;;;8.00;7.75;;;;;21.67;49.76;99160.22;4971834;28;45485;-59
2023/07/23 02:53:53;;;;;;;;;9.00;8.00;;;;;21.65;50.19;99155.00;4971168;28;45535;-59
2023/07/23 02:56:19;;;;;;;;;5.50;5.50;;;;;21.70;49.56;99151.94;4973384;28;45646;-58
2023/07/23 02:58:44;;;;;;;;;6.75;6.00;;;;;21.71;49.95;99154.47;4972256;28;45478;-59
2023/07/23 03:01:10;;;;;;;;;6.50;6.50;;;;;21.74;49.79;99164.09;4974156;28;45400;-59
2023/07/23 03:03:35;;;;;;;;;7.00;6.40;;;;;21.72;50.17;99160.69;4970489;28;45438;-59
2023/07/23 03:06:02;;;;;;;;;8.50;7.00;;;;;21.70;49.74;99159.97;4973336;28;45409;-58
2023/07/23 03:08:27;;;;;;;;;9.80;7.00;;;;;21.71;49.81;99161.69;4970844;28;45483;-58
2023/07/23 03:10:53;;;;;;;;;5.25;5.00;;;;;21.71;49.90;99164.38;4974008;28;45449;-58
2023/07/23 03:13:18;;;;;;;;;7.50;7.00;;;;;21.72;49.96;99174.13;4972058;28;45739;-58
2023/07/23 03:15:43;;;;;;;;;8.75;6.25;;;;;21.71;49.74;99169.72;4973908;28;45589;-58
2023/07/23 03:18:09;;;;;;;;;10.00;7.75;;;;;21.69;49.95;99175.22;4966498;28;45458;-58
2023/07/23 03:20:34;;;;;;;;;6.75;5.50;;;;;21.66;49.72;99172.78;4971426;28;45526;-58
2023/07/23 03:23:00;;;;;;;;;9.75;8.75;;;;;21.65;50.24;99173.78;4968256;28;45950;-58
2023/07/23 03:25:25;;;;;;;;;8.00;7.00;;;;;21.68;50.16;99178.88;4974431;28;45515;-58
2023/07/23 03:27:51;;;;;;;;;7.00;7.00;;;;;21.68;49.94;99180.72;4966608;28;47990;-58
2023/07/23 03:30:16;;;;;;;;;6.75;6.75;;;;;21.64;50.01;99179.28;4973570;28;45511;-58
2023/07/23 03:32:41;;;;;;;;;10.00;8.00;;;;;21.62;50.29;99178.56;4967861;28;46026;-58
2023/07/23 03:35:07;;;;;;;;;12.25;7.25;;;;;21.58;50.54;99181.50;4973729;28;45563;-58
2023/07/23 03:37:32;;;;;;;;;6.25;6.00;;;;;21.51;50.49;99190.19;4967836;28;46088;-58
2023/07/23 03:39:58;;;;;;;;;7.00;7.00;;;;;21.49;50.60;99198.38;4973879;28;45491;-58
2023/07/23 03:42:24;;;;;;;;;9.00;8.00;;;;;21.51;50.42;99192.88;4968826;28;46003;-59
2023/07/23 03:44:49;;;;;;;;;9.00;8.00;;;;;21.50;50.84;99194.72;4972247;28;45402;-58
2023/07/23 03:47:17;;;;;;;;;9.00;7.75;;;;;21.49;50.44;99190.31;4983832;28;46558;-59
2023/07/23 03:49:43;;;;;;;;;8.20;6.80;;;;;21.49;50.22;99189.47;4972950;28;45419;-58
2023/07/23 03:52:09;;;;;;;;;8.00;8.00;;;;;21.47;50.02;99188.75;4969713;28;45551;-58
2023/07/23 03:54:35;;;;;;;;;7.75;7.00;;;;;21.43;50.36;99182.81;4970583;28;45824;-60
2023/07/23 03:57:01;;;;;;;;;7.80;6.20;;;;;21.38;50.30;99189.53;4971243;28;45533;-58
2023/07/23 03:59:29;;;;;;;;;14.25;10.00;;;;;21.34;50.56;99190.75;4972725;28;45542;-58
2023/07/23 04:01:54;;;;;;;;;8.00;8.00;;;;;21.27;51.31;99195.78;4969435;28;45570;-58
2023/07/23 04:04:19;;;;;;;;;7.50;7.50;;;;;21.14;51.43;99201.25;4972302;28;45399;-58
2023/07/23 04:06:45;;;;;;;;;9.00;8.00;;;;;21.09;51.23;99195.44;4970493;28;45545;-58
2023/07/23 04:09:12;;;;;;;;;12.00;9.00;;;;;21.03;50.81;99203.13;4969654;28;45522;-58
2023/07/23 04:11:38;;;;;;;;;10.60;8.00;;;;;20.95;51.11;99194.88;4969698;28;45452;-58
2023/07/23 04:14:03;;;;;;;;;9.50;8.50;;;;;20.86;51.24;99199.13;4972047;28;45414;-58
2023/07/23 04:16:28;;;;;;;;;10.25;10.00;;;;;20.75;51.67;99199.16;4969671;28;46137;-58
2023/07/23 04:18:54;;;;;;;;;8.25;8.00;;;;;20.70;51.85;99199.53;4967964;28;45462;-58
2023/07/23 04:21:21;;;;;;;;;5.50;5.00;;;;;20.65;51.71;99198.19;4971147;28;45464;-59
2023/07/23 04:23:52;;;;;;;;;11.00;9.75;;;;;20.59;51.91;99201.38;4968321;28;45407;-59
2023/07/23 04:26:19;;;;;;;;;8.00;8.00;;;;;20.57;51.93;99197.97;4970307;28;46203;-58
2023/07/23 04:28:45;;;;;;;;;9.40;9.20;;;;;20.54;52.35;99201.72;4971917;28;45445;-59
2023/07/23 04:31:11;;;;;;;;;5.50;2.00;;;;;20.57;51.79;99201.50;4972197;28;45478;-58
2023/07/23 04:33:36;;;;;;;;;11.25;8.00;;;;;20.57;51.69;99198.81;4967088;28;45441;-59
2023/07/23 04:36:04;;;;;;;;;9.00;9.00;;;;;20.59;52.68;99204.03;4987905;28;46564;-59
2023/07/23 04:38:29;;;;;;;;;10.00;10.00;;;;;20.61;52.23;99205.59;4979866;28;45493;-59
2023/07/23 04:40:54;;;;;;;;;11.00;8.00;;;;;20.66;53.21;99208.78;4972789;28;45554;-59
2023/07/23 04:43:20;;;;;;;;;7.50;7.00;;;;;20.68;52.82;99201.47;4967112;28;45495;-59
2023/07/23 04:45:45;;;;;;;;;10.00;7.50;;;;;20.71;52.88;99201.22;4972216;28;45431;-59
2023/07/23 04:48:12;;;;;;;;;9.25;7.00;;;;;20.75;52.95;99212.56;4967853;28;45464;-59
2023/07/23 04:50:37;;;;;;;;;8.00;7.60;;;;;20.77;52.77;99214.16;4971221;28;45371;-59
2023/07/23 04:53:03;;;;;;;;;7.25;7.25;;;;;20.82;52.26;99214.59;4970513;28;45431;-59
2023/07/23 04:55:28;;;;;;;;;13.00;8.25;;;;;20.86;52.40;99213.38;4965673;28;45834;-59
2023/07/23 04:57:54;;;;;;;;;9.25;8.00;;;;;20.88;52.29;99215.94;4969797;28;45537;-58
2023/07/23 05:00:19;;;;;;;;;5.50;5.50;;;;;20.89;52.24;99214.97;4970961;28;46060;-59
2023/07/23 05:02:44;;;;;;;;;8.75;7.75;;;;;20.92;51.97;99211.19;4968343;28;45511;-59
2023/07/23 05:05:10;;;;;;;;;7.50;7.50;;;;;20.92;51.85;99214.72;4971509;28;46048;-59
2023/07/23 05:07:35;;;;;;;;;11.00;10.00;;;;;20.93;52.47;99212.91;4967893;28;45512;-59
2023/07/23 05:10:01;;;;;;;;;9.00;8.00;;;;;20.92;52.05;99212.06;4968130;28;45410;-59
2023/07/23 05:12:26;;;;;;;;;10.75;9.75;;;;;20.95;52.50;99219.00;4970123;28;45371;-59
2023/07/23 05:14:52;;;;;;;;;11.00;8.00;;;;;20.95;52.59;99225.19;4971764;28;45512;-59
2023/07/23 05:17:17;;;;;;;;;8.50;8.00;;;;;21.00;52.13;99216.78;4970103;28;45489;-59
2023/07/23 05:19:42;;;;;;;;;8.75;7.00;;;;;21.04;52.53;99229.81;4969922;28;45875;-59
2023/07/23 05:22:08;;;;;;;;;8.50;7.50;;;;;21.12;52.77;99232.69;4969206;28;45521;-59
2023/07/23 05:24:33;;;;;;;;;11.00;10.00;;;;;21.16;52.40;99226.13;4971117;28;46238;-58
2023/07/23 05:26:59;;;;;;;;;13.50;8.25;;;;;21.20;52.60;99232.13;4970000;28;45472;-58
2023/07/23 05:29:24;;;;;;;;;7.50;7.50;;;;;21.22;52.50;99236.38;4972884;28;45978;-58
2023/07/23 05:31:50;;;;;;;;;5.25;5.25;;;;;21.27;53.10;99235.16;4971975;28;45617;-58
2023/07/23 05:34:16;;;;;;;;;9.20;8.00;;;;;21.32;52.67;99238.28;4970535;28;46854;-65
2023/07/23 05:36:42;;;;;;;;;9.75;7.75;;;;;21.34;52.50;99229.16;4974721;28;45522;-59
2023/07/23 05:39:08;;;;;;;;;10.50;9.25;;;;;21.34;52.50;99230.97;4970769;28;45619;-59
2023/07/23 05:41:34;;;;;;;;;10.00;8.25;;;;;21.29;52.07;99233.19;4973336;28;45647;-59
2023/07/23 05:43:59;;;;;;;;;7.00;6.25;;;;;21.25;52.47;99232.59;4972310;28;45490;-60
2023/07/23 05:46:25;;;;;;;;;11.25;8.25;;;;;21.23;52.21;99240.78;4973843;28;45506;-60
2023/07/23 05:48:50;;;;;;;;;9.75;8.25;;;;;21.24;52.77;99239.78;4972863;28;45643;-60
2023/07/23 05:51:15;;;;;;;;;10.00;7.75;;;;;21.26;52.98;99236.13;4973040;28;45558;-60
2023/07/23 05:53:41;;;;;;;;;7.25;7.25;;;;;21.27;53.35;99225.28;4972580;28;45497;-60
2023/07/23 05:56:06;;;;;;;;;8.25;7.50;;;;;21.28;52.61;99223.47;4974415;28;45486;-59
2023/07/23 05:58:31;;;;;;;;;8.25;7.25;;;;;21.30;52.85;99222.31;4973211;28;45685;-59
2023/07/23 06:00:57;;;;;;;;;10.00;10.00;;;;;21.32;52.59;99235.63;4975007;28;45574;-60
2023/07/23 06:03:22;;;;;;;;;9.00;9.00;;;;;21.34;52.92;99239.88;4972970;28;45575;-60
2023/07/23 06:05:48;;;;;;;;;8.25;8.25;;;;;21.36;52.56;99240.59;4975019;28;45465;-59
2023/07/23 06:08:13;;;;;;;;;10.75;8.00;;;;;21.36;52.55;99234.38;4969303;28;45455;-60
2023/07/23 06:10:40;;;;;;;;;9.75;9.00;;;;;21.38;52.31;99235.13;4975032;28;45493;-60
2023/07/23 06:13:05;;;;;;;;;10.75;9.00;;;;;21.40;52.66;99241.22;4968588;28;46805;-60
2023/07/23 06:15:31;;;;;;;;;7.75;6.50;;;;;21.42;52.52;99237.44;4975005;28;45463;-60
2023/07/23 06:17:57;;;;;;;;;13.25;10.75;;;;;21.46;51.71;99238.00;4968168;28;45504;-60
2023/07/23 06:20:22;;;;;;;;;10.00;10.00;;;;;21.46;51.77;99236.16;4975324;28;45439;-60
2023/07/23 06:22:48;;;;;;;;;16.25;14.75;;;;;21.53;51.71;99239.22;4968494;28;45437;-60
2023/07/23 06:25:13;;;;;;;;;12.50;11.00;;;;;21.57;51.77;99232.63;4974196;28;45451;-60
2023/07/23 06:27:38;;;;;;;;;11.25;9.00;;;;;21.61;51.24;99236.75;4971551;28;45561;-60
2023/07/23 06:30:05;;;;;;;;;9.00;8.00;;;;;21.67;51.24;99235.38;4974572;28;45438;-60
2023/07/23 06:32:30;;;;;;;;;9.60;8.60;;;;;21.72;51.28;99241.22;4970630;28;46252;-59
2023/07/23 06:34:55;;;;;;;;;9.50;7.50;;;;;21.75;51.00;99230.22;4974032;28;45533;-60
2023/07/23 06:37:21;;;;;;;;;10.25;8.50;;;;;21.78;51.65;99233.50;4968988;28;45363;-60
2023/07/23 06:39:46;;;;;;;;;7.75;7.75;;;;;21.82;51.01;99234.94;4973366;28;45552;-60
2023/07/23 06:42:11;;;;;;;;;12.75;8.00;;;;;21.84;51.06;99230.28;4972284;28;45430;-60
2023/07/23 06:44:38;;;;;;;;;9.00;8.50;;;;;21.89;50.80;99230.75;4974800;28;45518;-60
2023/07/23 06:47:03;;;;;;;;;11.00;10.60;;;;;21.92;50.54;99230.50;4970373;28;45501;-59
2023/07/23 06:49:30;;;;;;;;;11.50;8.75;;;;;21.95;50.55;99232.91;4974159;28;45505;-60
2023/07/23 06:51:55;;;;;;;;;11.20;9.40;;;;;22.01;50.12;99239.63;4971705;28;45580;-59
2023/07/23 06:54:21;;;;;;;;;9.00;8.00;;;;;22.09;50.63;99237.16;4974529;28;45452;-60
2023/07/23 06:56:47;;;;;;;;;9.00;8.00;;;;;22.16;50.04;99240.13;4971409;28;45471;-59
2023/07/23 06:59:12;;;;;;;;;11.25;9.50;;;;;22.20;49.79;99226.31;4974292;28;45508;-60
2023/07/23 07:01:37;;;;;;;;;12.00;8.00;;;;;22.27;50.17;99234.72;4971931;28;45423;-60
2023/07/23 07:04:03;;;;;;;;;12.75;10.00;;;;;22.29;49.98;99236.25;4973068;28;45410;-60
2023/07/23 07:06:29;;;;;;;;;11.25;11.00;;;;;22.35;48.84;99234.88;4972029;28;45674;-60
2023/07/23 07:08:54;;;;;;;;;10.00;10.00;;;;;22.40;48.76;99234.50;4966981;28;45413;-59
2023/07/23 07:11:20;;;;;;;;;10.00;9.25;;;;;22.44;48.56;99236.78;4969310;28;45537;-60
2023/07/23 07:13:45;;;;;;;;;10.00;9.00;;;;;22.51;48.79;99224.50;4966057;28;45483;-60
2023/07/23 07:16:10;;;;;;;;;11.50;10.00;;;;;22.57;48.01;99223.97;4973447;28;45899;-60
2023/07/23 07:18:36;;;;;;;;;10.50;9.50;;;;;22.65;48.43;99223.28;4967026;28;45588;-60
2023/07/23 07:21:02;;;;;;;;;10.25;10.25;;;;;22.72;48.51;99220.91;4973865;28;45553;-60
2023/07/23 07:23:29;;;;;;;;;10.50;9.50;;;;;22.79;48.40;99220.25;4967371;28;45470;-59
2023/07/23 07:25:55;;;;;;;;;10.80;9.40;;;;;22.87;48.57;99222.28;4973756;28;45367;-60
2023/07/23 07:28:21;;;;;;;;;16.25;13.00;;;;;22.95;48.85;99222.47;4967254;28;45541;-60
2023/07/23 07:30:46;;;;;;;;;10.00;10.00;;;;;23.03;49.07;99209.16;4973817;28;45906;-60
2023/07/23 07:33:12;;;;;;;;;10.00;9.50;;;;;23.13;48.74;99215.41;4969759;28;45472;-60
2023/07/23 07:35:37;;;;;;;;;9.75;9.00;;;;;23.22;48.72;99219.97;4973719;28;45517;-60
2023/07/23 07:38:03;;;;;;;;;9.00;8.25;;;;;23.32;48.57;99222.66;4971556;28;45512;-60
2023/07/23 07:40:29;;;;;;;;;12.25;11.25;;;;;23.41;48.76;99212.91;4969052;28;46546;-60
2023/07/23 07:42:55;;;;;;;;;9.00;8.40;;;;;23.53;48.30;99211.81;4968158;28;45454;-60
2023/07/23 07:45:20;;;;;;;;;11.00;10.00;;;;;23.61;48.10;99214.66;4973430;28;45410;-59
2023/07/23 07:47:45;;;;;;;;;9.75;9.25;;;;;23.69;47.95;99205.84;4968972;28;45657;-60
2023/07/23 07:50:11;;;;;;;;;12.00;10.00;;;;;23.78;47.36;99202.31;4971992;28;45474;-60
2023/07/23 07:52:36;;;;;;;;;10.50;9.25;;;;;23.85;46.73;99198.91;4968797;28;45472;-60
2023/07/23 07:55:02;;;;;;;;;10.50;9.25;;;;;23.91;46.65;99200.19;4973294;28;45470;-60
2023/07/23 07:57:27;;;;;;;;;10.25;9.25;;;;;24.00;46.89;99207.38;4969649;28;45423;-60
2023/07/23 07:59:53;;;;;;;;;11.50;10.50;;;;;24.09;47.01;99198.44;4971921;28;45514;-60
2023/07/23 08:02:19;;;;;;;;;10.00;10.00;;;;;24.17;46.25;99192.31;4970321;28;45477;-60
2023/07/23 08:04:44;;;;;;;;;10.50;10.00;;;;;24.24;45.91;99185.41;4972711;28;45582;-60
2023/07/23 08:07:10;;;;;;;;;13.00;11.00;;;;;24.29;45.84;99172.34;4971654;28;45550;-60
2023/07/23 08:09:39;;;;;;;;;9.40;8.40;;;;;24.37;45.73;99174.28;4967166;28;46735;-60
2023/07/23 08:12:06;;;;;;;;;11.60;10.60;;;;;24.43;45.21;99163.78;4969198;28;45495;-60
2023/07/23 08:14:33;;;;;;;;;12.40;11.20;;;;;24.51;45.35;99165.72;4971957;28;45562;-60
2023/07/23 08:16:59;;;;;;;;;9.50;8.75;;;;;24.56;44.58;99161.56;4969226;28;45504;-60
2023/07/23 08:19:24;;;;;;;;;12.25;12.25;;;;;24.61;44.61;99161.13;4969769;28;45462;-60
2023/07/23 08:21:50;;;;;;;;;9.00;9.00;;;;;24.67;44.37;99160.53;4969843;28;45339;-60
2023/07/23 08:24:15;;;;;;;;;14.25;10.25;;;;;24.75;44.27;99154.38;4968806;28;45489;-59
2023/07/23 08:26:42;;;;;;;;;13.25;10.50;;;;;24.81;44.08;99149.22;4970869;28;45446;-59
2023/07/23 08:29:10;;;;;;;;;12.60;11.00;;;;;24.89;43.93;99149.34;4968634;28;46214;-60
2023/07/23 08:31:36;;;;;;;;;9.20;8.40;;;;;24.97;43.53;99146.75;4970942;28;45501;-60
2023/07/23 08:34:03;;;;;;;;;9.20;7.60;;;;;25.04;43.61;99142.44;4967729;28;45434;-60
2023/07/23 08:36:32;;;;;;;;;9.40;8.00;;;;;25.10;43.33;99146.41;4970237;28;45534;-60
2023/07/23 08:38:57;;;;;;;;;10.00;9.80;;;;;25.20;43.92;99146.31;4982912;28;47261;-60
2023/07/23 08:41:47;;;;;;;;;12.00;11.25;;;;;25.28;43.93;99152.66;4971631;28;45483;-60
2023/07/23 08:44:40;;;;;;;;;12.00;11.80;;;;;25.36;43.54;99146.47;4969651;28;45562;-60
2023/07/23 08:47:13;;;;;;;;;11.50;10.75;;;;;25.43;43.91;99152.97;4965847;28;45497;-60
2023/07/23 08:49:40;;;;;;;;;11.80;9.40;;;;;25.52;43.56;99148.47;4971691;28;45525;-60
2023/07/23 08:52:06;;;;;;;;;12.20;10.60;;;;;25.57;42.69;99140.75;4969379;28;45498;-60
2023/07/23 08:54:32;;;;;;;;;13.00;12.40;;;;;25.64;42.92;99142.69;4971021;28;45470;-60
2023/07/23 08:56:58;;;;;;;;;12.20;12.00;;;;;25.71;43.08;99132.13;4970453;28;45466;-60
2023/07/23 08:59:26;;;;;;;;;11.25;11.25;;;;;25.79;43.29;99131.34;4963540;28;47670;-59
2023/07/23 09:01:52;;;;;;;;;15.00;11.40;;;;;25.87;43.16;99126.84;4969719;28;45455;-60
2023/07/23 09:04:17;;;;;;;;;11.25;10.75;;;;;25.96;43.24;99116.94;4968515;28;45641;-60
2023/07/23 09:06:43;;;;;;;;;18.50;11.00;;;;;26.03;42.51;99121.53;4970103;28;45574;-60
2023/07/23 09:09:12;;;;;;;;;12.50;11.50;;;;;26.11;42.50;99122.59;4967992;28;45487;-60
2023/07/23 09:11:38;;;;;;;;;10.40;10.20;;;;;26.17;42.39;99119.22;4970824;28;45462;-60
2023/07/23 09:14:08;;;;;;;;;10.75;10.50;;;;;26.26;42.56;99124.53;4969968;28;45542;-60
2023/07/23 09:16:38;;;;;;;;;11.40;9.80;;;;;26.35;42.93;99109.22;4970182;28;45430;-60
2023/07/23 09:19:05;;;;;;;;;13.25;11.25;;;;;26.47;42.25;99116.06;4970869;28;45562;-60
2023/07/23 09:21:31;;;;;;;;;10.00;9.00;;;;;26.57;42.68;99115.91;4969954;28;45431;-60
2023/07/23 09:24:04;;;;;;;;;10.50;10.50;;;;;26.71;42.33;99110.72;4967715;28;45486;-60
2023/07/23 09:26:29;;;;;;;;;3.00;3.00;;;;;26.86;42.26;99097.41;4970164;28;45490;-60
2023/07/23 09:28:59;;;;;;;;;7.75;7.75;;;;;27.02;42.19;99102.88;4971978;28;46340;-60
2023/07/23 09:31:26;;;;;;;;;10.60;9.60;;;;;27.17;42.06;99097.66;4970895;28;45614;-60
2023/07/23 09:33:54;;;;;;;;;13.40;11.40;;;;;27.32;41.67;99093.28;4969687;28;45447;-60
2023/07/23 09:36:21;;;;;;;;;12.75;12.75;;;;;27.47;41.34;99095.31;4970824;28;45389;-60
2023/07/23 09:39:03;;;;;;;;;12.60;11.60;;;;;27.61;41.25;99078.41;4968491;28;45515;-60
2023/07/23 09:41:33;;;;;;;;;12.20;9.00;;;;;27.77;41.32;99076.53;4970278;28;45819;-62
2023/07/23 09:44:01;;;;;;;;;12.20;10.60;;;;;27.92;40.78;99075.81;4970689;28;45382;-60
2023/07/23 09:46:27;;;;;;;;;14.00;13.00;;;;;28.05;40.65;99068.00;4970153;28;45493;-60
2023/07/23 09:48:53;;;;;;;;;14.75;14.75;;;;;28.18;40.62;99064.72;4970782;28;45579;-60
2023/07/23 09:51:19;;;;;;;;;10.75;10.50;;;;;28.29;40.27;99064.41;4970820;28;45474;-60
2023/07/23 09:53:47;;;;;;;;;12.25;11.50;;;;;28.41;39.80;99066.53;4970184;28;45416;-60
2023/07/23 09:56:14;;;;;;;;;16.50;14.00;;;;;28.55;39.75;99064.94;4971603;28;45360;-60
2023/07/23 09:58:41;;;;;;;;;13.75;11.00;;;;;28.65;39.46;99062.88;4969900;28;45519;-60
2023/07/23 10:01:07;;;;;;;;;12.60;12.20;;;;;28.73;38.94;99057.38;4971682;28;45410;-60
2023/07/23 10:03:34;;;;;;;;;16.00;16.00;;;;;28.84;38.00;99056.16;4968849;28;45588;-60
2023/07/23 10:05:59;;;;;;;;;15.25;14.00;;;;;28.93;38.07;99048.81;4969694;28;45359;-60
2023/07/23 10:08:27;;;;;;;;;12.75;11.00;;;;;29.02;37.64;99050.44;4962673;28;45461;-60
2023/07/23 10:10:52;;;;;;;;;16.80;13.40;;;;;29.11;37.70;99044.78;4971174;28;45377;-60
2023/07/23 10:13:18;;;;;;;;;17.50;16.00;;;;;29.20;37.79;99036.53;4964641;28;45406;-59
2023/07/23 10:15:44;;;;;;;;;23.50;17.00;;;;;29.27;37.67;99026.66;4968961;28;45369;-62
2023/07/23 10:18:12;;;;;;;;;23.25;20.25;;;;;29.35;37.27;99026.56;4970969;28;45515;-60
2023/07/23 10:20:38;;;;;;;;;18.20;13.00;;;;;29.45;36.55;99021.78;4974654;28;45390;-60
2023/07/23 10:23:05;;;;;;;;;16.00;14.00;;;;;29.60;37.24;99022.63;4968279;28;45414;-60
2023/07/23 10:25:33;;;;;;;;;18.25;16.75;;;;;29.77;37.29;99021.44;4973982;28;45479;-60
2023/07/23 10:28:06;;;;;;;;;14.00;13.00;;;;;29.93;36.94;99006.81;4971449;28;47139;-60
2023/07/23 10:30:41;;;;;;;;;16.80;14.00;;;;;30.03;36.68;99012.84;4972106;28;45414;-60
2023/07/23 10:33:09;;;;;;;;;14.25;13.75;;;;;30.15;36.61;99005.06;4971387;28;45560;-60
2023/07/23 10:35:53;;;;;;;;;17.25;13.75;;;;;30.28;36.07;98999.78;4974506;28;45507;-60
2023/07/23 10:38:27;;;;;;;;;16.00;13.75;;;;;30.37;35.81;98986.91;4967671;28;46403;-60
2023/07/23 10:40:53;;;;;;;;;17.60;16.60;;;;;30.46;35.83;98986.63;4972938;28;45466;-60
2023/07/23 10:43:19;;;;;;;;;5.25;5.25;;;;;30.59;36.09;98975.06;4972426;28;45464;-59
2023/07/23 10:45:47;;;;;;;;;19.50;18.00;;;;;30.76;34.95;98976.50;4973420;28;45626;-59
2023/07/23 10:48:17;;;;;;;;;19.25;17.00;;;;;30.97;34.35;98974.81;4972131;28;45540;-59
2023/07/23 10:51:00;;;;;;;;;18.80;16.40;;;;;31.15;34.30;98967.91;4974045;28;45466;-60
2023/07/23 10:53:30;;;;;;;;;18.75;16.75;;;;;31.33;33.98;98972.00;4966149;28;45493;-60
2023/07/23 10:55:59;;;;;;;;;20.25;16.50;;;;;31.48;34.02;98970.03;4973334;28;45605;-60
2023/07/23 10:58:27;;;;;;;;;19.25;17.75;;;;;31.63;33.49;98961.75;4970985;28;45446;-59
2023/07/23 11:00:53;;;;;;;;;17.60;16.00;;;;;31.78;33.21;98951.59;4972298;28;45446;-59
2023/07/23 11:03:21;;;;;;;;;22.75;19.00;;;;;31.93;32.75;98949.56;4970320;28;45427;-59
2023/07/23 11:05:47;;;;;;;;;20.00;15.25;;;;;32.08;32.60;98947.53;4973467;28;45544;-60
2023/07/23 11:08:18;;;;;;;;;22.50;17.25;;;;;32.20;32.06;98937.75;4970831;28;46200;-59
2023/07/23 11:10:59;;;;;;;;;18.40;16.40;;;;;32.34;31.36;98943.25;4972173;28;45523;-59
2023/07/23 11:13:28;;;;;;;;;20.25;19.25;;;;;32.42;30.94;98938.44;4969754;28;45471;-59
2023/07/23 11:15:55;;;;;;;;;18.75;17.50;;;;;32.47;30.78;98927.75;4973114;28;45488;-59
2023/07/23 11:18:21;;;;;;;;;17.75;16.00;;;;;32.48;31.05;98926.72;4970282;28;46494;-59
2023/07/23 11:20:46;;;;;;;;;16.75;15.50;;;;;32.54;30.79;98920.41;4973705;28;45498;-59
2023/07/23 11:23:12;;;;;;;;;18.00;15.75;;;;;32.63;30.73;98921.06;4971190;28;45743;-59